Time;durP1;ratioP1;P1;durP2;ratioP2;P2;SDS_P1;SDS_P2;PMS_P1;PMS_P2;Temp;Humidity;BMP_temperature;BMP_pressure;BME280_temperature;BME280_humidity;BME280_pressure;Samples;Min_cycle;Max_cycle;Signal;HPM_P1;HPM_P2
2022/03/21 00:01:47;;;;;;;17.50;12.45;;;;;;;;;;4995769;28;20279;-77
2022/03/21 00:04:17;;;;;;;16.85;13.50;;;;;;;;;;4997803;28;20190;-78
2022/03/21 00:06:49;;;;;;;15.85;11.50;;;;;;;;;;4996851;28;20201;-77
2022/03/21 00:09:20;;;;;;;16.95;13.13;;;;;;;;;;4997052;28;20641;-78
2022/03/21 00:11:47;;;;;;;17.10;12.73;;;;;;;;;;4996430;28;20228;-77
2022/03/21 00:14:13;;;;;;;16.92;12.75;;;;;;;;;;5007889;28;20205;-78
2022/03/21 00:16:41;;;;;;;16.38;12.45;;;;;;;;;;5008324;28;20691;-78
2022/03/21 00:19:08;;;;;;;15.82;12.32;;;;;;;;;;5008235;28;20236;-77
2022/03/21 00:21:35;;;;;;;18.17;13.25;;;;;;;;;;5007455;28;20225;-78
2022/03/21 00:24:02;;;;;;;18.27;12.82;;;;;;;;;;5005477;28;20255;-78
2022/03/21 00:26:31;;;;;;;16.05;11.57;;;;;;;;;;5002117;28;20243;-78
2022/03/21 00:28:58;;;;;;;14.38;12.07;;;;;;;;;;5002817;28;20318;-79
2022/03/21 00:31:25;;;;;;;19.95;13.13;;;;;;;;;;4997237;28;20229;-78
2022/03/21 00:33:51;;;;;;;16.65;12.88;;;;;;;;;;4996758;28;20229;-77
2022/03/21 00:36:18;;;;;;;16.58;11.98;;;;;;;;;;4997362;28;20220;-79
2022/03/21 00:38:45;;;;;;;14.77;11.10;;;;;;;;;;4997264;28;20240;-78
2022/03/21 00:41:12;;;;;;;16.42;11.68;;;;;;;;;;4997333;28;20228;-78
2022/03/21 00:43:41;;;;;;;17.15;11.43;;;;;;;;;;4997704;28;20239;-79
2022/03/21 00:46:08;;;;;;;21.40;13.32;;;;;;;;;;4997980;28;20256;-78
2022/03/21 00:48:35;;;;;;;15.95;12.35;;;;;;;;;;4997974;28;20735;-78
2022/03/21 00:51:01;;;;;;;15.43;12.43;;;6.20;1.00;;;;;;4998256;28;20275;-78
2022/03/21 00:53:28;;;;;;;16.40;11.60;;;4.90;1.00;;;;;;4998375;28;20263;-78
2022/03/21 00:55:55;;;;;;;16.92;11.95;;;4.70;1.00;;;;;;4999550;28;20645;-78
2022/03/21 00:58:22;;;;;;;16.15;11.70;;;4.60;1.00;;;;;;4999845;28;20225;-78
2022/03/21 01:00:50;;;;;;;16.90;13.25;;;5.00;1.00;;;;;;5004915;28;20742;-78
2022/03/21 01:03:16;;;;;;;15.80;12.30;;;4.80;1.00;;;;;;5005119;28;20229;-78
2022/03/21 01:05:43;;;;;;;21.63;12.48;;;4.60;1.00;;;;;;5003095;28;20204;-78
2022/03/21 01:08:09;;;;;;;25.00;16.38;;;4.50;1.00;;;;;;5003858;28;20209;-77
2022/03/21 01:10:36;;;;;;;16.80;12.90;;;4.60;1.00;;;;;;5001538;28;20224;-77
2022/03/21 01:13:03;;;;;;;16.30;13.07;;;4.50;9.60;;;;;;5003742;28;20225;-79
2022/03/21 01:15:32;;;;;;;17.08;11.50;;;;;;;;;;5002538;28;20250;-78
2022/03/21 01:18:02;;;;;;;16.85;12.77;;;;;;;;;;5004167;28;20212;-77
2022/03/21 01:20:30;;;;;;;15.07;12.38;;;;;;;;;;5001468;28;20300;-77
2022/03/21 01:22:58;;;;;;;17.08;12.23;;;;;;;;;;5000199;28;20228;-78
2022/03/21 01:25:26;;;;;;;15.27;11.60;;;;;;;;;;4996653;28;20259;-78
2022/03/21 01:27:54;;;;;;;20.02;12.93;;;;;;;;;;4997271;28;20578;-76
2022/03/21 01:30:22;;;;;;;19.02;12.18;;;;;;;;;;4996908;28;20212;-75
2022/03/21 01:32:50;;;;;;;18.45;14.13;;;;;;;;;;4998482;28;20252;-78
2022/03/21 01:35:21;;;;;;;15.00;11.98;;;;;;;;;;4996612;28;20228;-77
2022/03/21 01:37:48;;;;;;;18.90;14.00;;;4.50;1.00;;;;;;5003066;28;20264;-78
2022/03/21 01:40:17;;;;;;;13.68;11.65;;;4.60;99.90;;;;;;5000482;28;20208;-79
2022/03/21 01:42:46;;;;;;;18.95;13.65;;;4.30;99.90;;;;;;4998298;28;20229;-79
2022/03/21 01:45:13;;;;;;;14.07;11.27;;;4.30;1.00;;;;;;4997519;28;20213;-78
2022/03/21 01:47:41;;;;;;;14.90;12.73;;;4.10;1.00;;;;;;4997781;28;20229;-78
2022/03/21 01:50:09;;;;;;;17.15;13.02;;;4.30;1.00;;;;;;4997648;28;20577;-78
2022/03/21 01:52:37;;;;;;;19.73;13.52;;;4.20;22.40;;;;;;4997686;28;20252;-80
2022/03/21 01:57:51;;;;;;;22.08;14.18;;;4.00;31.20;;;;;;4997752;28;20216;-78
2022/03/21 02:00:17;;;;;;;13.95;11.45;;;3.80;90.70;;;;;;4997287;28;20224;-79
2022/03/21 02:02:44;;;;;;;17.00;12.50;;;3.90;70.00;;;;;;4998942;28;20604;-79
2022/03/21 02:05:11;;;;;;;19.92;13.75;;;3.60;75.30;;;;;;4999089;28;20232;-77
2022/03/21 02:07:39;;;;;;;15.63;11.77;;;3.80;83.70;;;;;;4998311;28;20256;-80
2022/03/21 02:10:07;;;;;;;16.85;13.02;;;3.40;70.60;;;;;;4997441;28;20205;-80
2022/03/21 02:12:34;;;;;;;15.88;12.13;;;3.80;75.10;;;;;;4996781;28;20259;-79
2022/03/21 02:15:01;;;;;;;20.80;13.50;;;3.30;78.00;;;;;;4997985;28;20212;-79
2022/03/21 02:17:30;;;;;;;14.35;11.45;;;3.70;79.30;;;;;;5003627;28;20283;-78
2022/03/21 02:20:01;;;;;;;18.67;13.20;;;3.60;79.50;;;;;;4997183;28;20213;-78
2022/03/21 02:22:39;;;;;;;19.08;13.60;;;3.50;86.10;;;;;;4996048;28;20604;-78
2022/03/21 02:25:26;;;;;;;18.23;12.52;;;3.30;75.00;;;;;;4995498;28;20221;-77
2022/03/21 02:27:54;;;;;;;14.45;11.98;;;3.40;76.60;;;;;;4994739;28;20185;-78
2022/03/21 02:30:21;;;;;;;18.58;12.85;;;;;;;;;;4994603;28;20205;-78
2022/03/21 02:32:48;;;;;;;13.07;11.35;;;3.60;79.40;;;;;;4993984;28;20703;-77
2022/03/21 02:35:17;;;;;;;18.27;12.20;;;3.50;82.60;;;;;;4995578;28;20646;-79
2022/03/21 02:37:45;;;;;;;14.35;11.32;;;3.60;89.00;;;;;;4995134;28;20248;-77
2022/03/21 02:40:12;;;;;;;14.75;11.52;;;3.10;72.00;;;;;;4994964;28;20232;-77
2022/03/21 02:42:40;;;;;;;15.10;11.70;;;3.70;72.20;;;;;;5007981;28;20225;-77
2022/03/21 02:45:07;;;;;;;17.45;13.00;;;3.40;73.20;;;;;;5011386;28;20197;-77
2022/03/21 02:47:34;;;;;;;21.67;13.07;;;3.50;73.40;;;;;;5010727;28;20201;-77
2022/03/21 02:50:02;;;;;;;15.18;12.45;;;3.40;73.50;;;;;;5010054;28;20213;-77
2022/03/21 02:52:30;;;;;;;16.08;12.23;;;3.50;72.80;;;;;;5010048;28;20229;-77
2022/03/21 02:54:57;;;;;;;18.27;12.48;;;3.20;73.30;;;;;;5009725;28;20221;-77
2022/03/21 02:57:24;;;;;;;16.48;11.80;;;3.40;73.00;;;;;;5009197;28;20233;-77
2022/03/21 02:59:52;;;;;;;16.88;11.73;;;3.50;73.20;;;;;;5003587;28;20209;-78
2022/03/21 03:02:19;;;;;;;14.40;11.43;;;3.50;73.00;;;;;;5010937;28;20232;-78
2022/03/21 03:04:45;;;;;;;18.52;13.43;;;3.60;74.70;;;;;;5012037;28;20209;-78
2022/03/21 03:07:12;;;;;;;18.48;12.45;;;3.50;73.90;;;;;;5009061;28;20204;-78
2022/03/21 03:09:38;;;;;;;15.57;12.75;;;3.20;74.60;;;;;;5001274;28;20205;-79
2022/03/21 03:12:06;;;;;;;17.52;12.27;;;3.20;75.60;;;;;;5001236;28;20611;-79
2022/03/21 03:14:32;;;;;;;17.92;12.90;;;3.20;76.10;;;;;;5004517;28;20599;-79
2022/03/21 03:17:01;;;;;;;15.60;13.45;;;3.20;77.10;;;;;;5002565;28;20731;-79
2022/03/21 03:19:28;;;;;;;21.80;13.90;;;3.20;78.00;;;;;;4999314;28;20583;-78
2022/03/21 03:21:56;;;;;;;21.52;13.35;;;3.30;78.20;;;;;;4999120;28;20261;-78
2022/03/21 03:24:25;;;;;;;17.83;13.20;;;2.90;78.80;;;;;;4998973;28;20292;-78
2022/03/21 03:26:52;;;;;;;19.88;14.57;;;3.10;79.40;;;;;;5005313;28;20201;-78
2022/03/21 03:29:18;;;;;;;19.45;14.32;;;3.10;79.80;;;;;;5007531;28;20228;-78
2022/03/21 03:31:45;;;;;;;19.38;13.15;;;3.10;80.70;;;;;;5008477;28;20233;-77
2022/03/21 03:34:14;;;;;;;19.60;13.00;;;3.20;80.00;;;;;;5002107;28;20201;-79
2022/03/21 03:36:40;;;;;;;18.98;13.63;;;3.10;78.90;;;;;;5006350;28;20253;-78
2022/03/21 03:39:08;;;;;;;17.85;14.13;;;3.00;1.00;;;;;;5010506;28;20524;-78
2022/03/21 03:41:35;;;;;;;19.60;13.93;;;3.40;1.00;;;;;;5008988;28;20251;-78
2022/03/21 03:44:01;;;;;;;20.30;14.73;;;3.20;1.00;;;;;;5007628;28;20582;-78
2022/03/21 03:46:29;;;;;;;19.38;14.75;;;3.10;1.00;;;;;;5000328;28;20536;-78
2022/03/21 03:48:55;;;;;;;24.85;15.30;;;2.90;1.00;;;;;;4998522;28;20209;-77
2022/03/21 03:51:23;;;;;;;24.77;15.68;;;2.60;1.00;;;;;;4999526;28;20592;-78
2022/03/21 03:53:50;;;;;;;21.42;14.95;;;3.00;1.00;;;;;;4997726;28;20560;-77
2022/03/21 03:56:16;;;;;;;21.60;14.52;;;2.90;1.00;;;;;;4996760;28;20288;-78
2022/03/21 03:58:43;;;;;;;21.02;14.40;;;2.60;1.00;;;;;;4998156;28;20379;-78
2022/03/21 04:01:10;;;;;;;25.00;16.10;;;;;;;;;;4997379;28;20236;-77
2022/03/21 04:03:45;;;;;;;21.38;15.63;;;2.70;1.00;;;;;;4997069;28;20645;-78
2022/03/21 04:06:12;;;;;;;20.10;14.40;;;2.70;1.00;;;;;;4998340;28;20224;-78
2022/03/21 04:08:40;;;;;;;23.10;16.40;;;2.60;1.00;;;;;;4997304;28;20681;-78
2022/03/21 04:11:07;;;;;;;18.95;13.73;;;2.70;1.00;;;;;;4997202;28;20209;-77
2022/03/21 04:13:33;;;;;;;24.15;16.30;;;2.50;1.00;;;;;;4995453;28;20263;-78
2022/03/21 04:16:00;;;;;;;28.08;16.25;;;2.70;1.00;;;;;;4998746;28;20237;-78
2022/03/21 04:18:27;;;;;;;26.10;15.32;;;2.70;1.00;;;;;;4998132;28;20320;-78
2022/03/21 04:20:53;;;;;;;23.33;14.93;;;2.70;1.00;;;;;;4997331;28;20236;-79
2022/03/21 04:23:20;;;;;;;21.77;15.68;;;2.70;1.00;;;;;;4997299;28;20281;-77
2022/03/21 04:25:48;;;;;;;22.65;16.10;;;2.60;99.90;;;;;;4997767;28;20275;-79
2022/03/21 04:28:16;;;;;;;22.90;16.65;;;2.50;99.90;;;;;;4999025;28;20296;-78
2022/03/21 04:30:44;;;;;;;24.73;16.38;;;2.50;99.90;;;;;;4998870;28;20224;-78
2022/03/21 04:33:13;;;;;;;26.42;16.98;;;2.50;99.90;;;;;;4998873;28;20372;-79
2022/03/21 04:35:40;;;;;;;24.92;16.33;;;2.40;99.90;;;;;;5006650;28;20201;-78
2022/03/21 04:38:13;;;;;;;23.13;16.25;;;2.50;99.90;;;;;;5014976;28;20287;-78
2022/03/21 04:40:40;;;;;;;21.80;16.55;;;2.60;99.90;;;;;;5011605;28;20193;-78
2022/03/21 04:43:08;;;;;;;27.08;17.00;;;2.50;99.90;;;;;;5001035;28;20225;-78
2022/03/21 04:45:35;;;;;;;28.13;17.27;;;2.40;99.90;;;;;;5000974;28;20209;-78
2022/03/21 04:48:01;;;;;;;25.92;15.73;;;2.50;99.90;;;;;;4998421;28;20263;-78
2022/03/21 04:50:28;;;;;;;22.55;16.80;;;2.50;99.90;;;;;;4999368;28;20233;-78
2022/03/21 04:52:55;;;;;;;28.10;16.42;;;2.40;99.90;;;;;;4998400;28;20256;-78
2022/03/21 04:55:21;;;;;;;25.60;17.33;;;2.70;1.00;;;;;;4999133;28;20507;-78
2022/03/21 04:57:48;;;;;;;28.38;18.25;;;2.50;1.00;;;;;;4999149;28;20507;-78
2022/03/21 05:00:17;;;;;;;26.95;18.23;;;2.50;99.90;;;;;;5008225;28;20218;-79
2022/03/21 05:02:43;;;;;;;29.20;18.95;;;2.50;99.90;;;;;;5020481;23;20260;-80
2022/03/21 05:05:10;;;;;;;29.95;17.30;;;2.60;99.90;;;;;;5002957;28;20209;-81
2022/03/21 05:07:40;;;;;;;26.30;18.42;;;2.60;99.90;;;;;;5008450;28;20204;-81
2022/03/21 05:10:08;;;;;;;28.95;18.23;;;2.50;99.90;;;;;;5016100;28;20264;-81
2022/03/21 05:12:34;;;;;;;27.67;18.00;;;2.60;99.90;;;;;;5016203;28;20229;-81
2022/03/21 05:15:02;;;;;;;35.88;18.25;;;2.50;99.90;;;;;;5016287;28;20232;-81
2022/03/21 05:17:32;;;;;;;23.85;18.63;;;2.50;99.90;;;;;;5016752;28;20221;-81
2022/03/21 05:19:59;;;;;;;22.20;16.92;;;2.50;99.90;;;;;;5016894;28;20216;-81
2022/03/21 05:22:26;;;;;;;23.20;16.25;;;2.40;99.90;;;;;;5017891;28;20216;-81
2022/03/21 05:35:55;;;;;;;27.70;17.02;;;2.30;99.90;;;;;;5016040;28;20247;-81
2022/03/21 05:38:23;;;;;;;26.83;17.52;;;2.40;99.90;;;;;;5006946;28;20237;-80
2022/03/21 05:40:50;;;;;;;27.48;15.73;;;2.40;99.90;;;;;;5000760;28;20272;-81
2022/03/21 05:43:17;;;;;;;23.70;16.52;;;2.50;1.00;;;;;;5000501;28;20232;-81
2022/03/21 05:45:44;;;;;;;26.23;16.52;;;2.40;99.90;;;;;;5001424;28;20279;-81
2022/03/21 05:50:56;;;;;;;22.38;15.43;;;2.40;99.90;;;;;;5010339;28;20188;-80
2022/03/21 05:53:23;;;;;;;26.67;16.77;;;2.50;99.90;;;;;;5008842;28;20229;-81
2022/03/21 05:55:50;;;;;;;21.38;14.63;;;2.40;1.00;;;;;;5008571;28;20205;-80
2022/03/21 05:58:17;;;;;;;25.20;16.30;;;2.50;99.90;;;;;;5009845;28;20225;-81
2022/03/21 06:00:44;;;;;;;24.58;16.77;;;2.60;1.00;;;;;;5010121;28;20225;-81
2022/03/21 06:03:11;;;;;;;22.55;14.55;;;2.40;99.90;;;;;;5012936;28;20237;-81
2022/03/21 06:05:40;;;;;;;22.98;15.50;;;2.40;99.90;;;;;;5007764;28;20211;-81
2022/03/21 06:08:08;;;;;;;26.95;17.67;;;2.40;99.90;;;;;;5003930;28;20269;-81
2022/03/21 06:10:36;;;;;;;25.10;16.67;;;2.50;99.90;;;;;;5002327;28;20208;-82
2022/03/21 06:13:05;;;;;;;27.35;16.52;;;2.60;1.00;;;;;;5002416;28;20252;-81
2022/03/21 06:15:32;;;;;;;24.00;16.67;;;2.50;99.90;;;;;;5005945;28;20272;-80
2022/03/21 06:18:01;;;;;;;25.15;16.35;;;2.60;99.90;;;;;;5017476;28;20204;-80
2022/03/21 06:20:29;;;;;;;28.00;17.35;;;2.60;99.90;;;;;;5013262;28;20212;-81
2022/03/21 06:22:57;;;;;;;24.00;15.70;;;2.60;99.90;;;;;;5014962;28;20225;-81
2022/03/21 06:25:24;;;;;;;24.35;16.00;;;2.60;99.90;;;;;;5014347;28;20205;-81
2022/03/21 06:27:50;;;;;;;30.17;15.70;;;2.60;99.90;;;;;;5016117;28;20232;-81
2022/03/21 06:30:17;;;;;;;21.98;16.75;;;2.70;99.90;;;;;;5015411;28;20200;-81
2022/03/21 06:32:43;;;;;;;23.23;15.20;;;2.80;99.90;;;;;;5013752;28;20236;-81
2022/03/21 06:35:10;;;;;;;26.80;17.55;;;2.90;99.90;;;;;;5014827;28;20200;-81
2022/03/21 06:37:40;;;;;;;26.73;16.85;;;3.00;99.90;;;;;;5018283;28;20205;-80
2022/03/21 06:40:07;;;;;;;24.00;16.25;;;3.10;99.90;;;;;;5018601;28;20196;-80
2022/03/21 06:42:34;;;;;;;29.60;17.42;;;3.10;99.90;;;;;;5017130;28;20224;-80
2022/03/21 06:45:01;;;;;;;29.73;17.40;;;3.20;99.90;;;;;;5015768;28;20200;-79
2022/03/21 06:47:28;;;;;;;27.88;17.58;;;3.30;99.90;;;;;;5009692;28;20232;-81
2022/03/21 06:49:54;;;;;;;27.38;16.92;;;3.40;99.90;;;;;;5019311;28;20208;-80
2022/03/21 06:52:21;;;;;;;24.10;18.13;;;3.40;99.90;;;;;;5021110;28;20205;-80
2022/03/21 06:54:50;;;;;;;24.77;14.85;;;3.50;99.90;;;;;;5021288;28;20201;-80
2022/03/21 06:57:18;;;;;;;23.55;13.85;;;3.60;99.90;;;;;;5020681;28;20189;-80
2022/03/21 06:59:45;;;;;;;21.45;14.75;;;3.70;99.90;;;;;;5019384;28;20201;-80
2022/03/21 07:02:12;;;;;;;23.17;15.00;;;3.90;99.90;;;;;;5011681;28;20240;-80
2022/03/21 07:04:39;;;;;;;18.15;14.15;;;4.00;99.90;;;;;;5008763;28;20676;-80
2022/03/21 07:07:06;;;;;;;26.00;16.10;;;4.10;99.90;;;;;;5008575;28;20209;-81
2022/03/21 07:09:32;;;;;;;21.25;14.85;;;4.10;99.90;;;;;;5015436;28;20216;-80
2022/03/21 07:12:00;;;;;;;20.30;13.40;;;4.30;99.90;;;;;;5016993;28;20288;-80
2022/03/21 07:14:27;;;;;;;21.60;13.90;;;4.50;99.90;;;;;;5017190;28;20223;-80
2022/03/21 07:16:53;;;;;;;21.38;13.30;;;4.60;1.00;;;;;;5011228;28;20216;-80
2022/03/21 07:19:20;;;;;;;19.95;13.77;;;4.70;99.90;;;;;;5006784;28;20236;-81
2022/03/21 07:21:47;;;;;;;23.48;14.15;;;4.80;99.90;;;;;;5005325;28;20221;-81
2022/03/21 07:24:13;;;;;;;22.50;13.20;;;4.80;99.90;;;;;;5004286;28;20209;-81
2022/03/21 07:26:40;;;;;;;20.35;14.35;;;4.80;99.90;;;;;;5002653;28;20229;-81
2022/03/21 07:29:11;;;;;;;20.55;13.98;;;4.90;99.90;;;;;;5006146;28;20201;-80
2022/03/21 07:31:37;;;;;;;22.10;13.85;;;4.90;1.00;;;;;;5003535;28;20240;-82
2022/03/21 07:34:04;;;;;;;16.95;14.07;;;5.10;99.90;;;;;;5003462;28;20228;-82
2022/03/21 07:36:31;;;;;;;18.52;13.38;;;5.10;99.90;;;;;;5003693;28;20239;-82
2022/03/21 07:38:58;;;;;;;18.65;13.35;;;5.30;99.90;;;;;;5003808;28;20220;-82
2022/03/21 07:41:26;;;;;;;22.52;13.38;;;5.40;99.90;;;;;;5004027;28;20237;-80
2022/03/21 07:43:57;;;;;;;21.50;14.23;;;5.50;99.90;;;;;;5015111;28;20268;-81
2022/03/21 07:49:10;;;;;;;14.23;11.07;;;5.70;1.00;;;;;;5005347;28;20203;-81
2022/03/21 07:51:36;;;;;;;15.63;12.45;;;6.50;99.90;;;;;;5004521;28;20236;-81
2022/03/21 07:54:03;;;;;;;16.67;12.60;;;5.80;1.00;;;;;;5004633;28;20209;-82
2022/03/21 07:56:30;;;;;;;15.57;11.90;;;6.00;14.50;;;;;;5004023;28;20574;-81
2022/03/21 07:58:59;;;;;;;16.45;14.00;;;6.10;99.90;;;;;;5004172;28;20216;-81
2022/03/21 08:01:29;;;;;;;18.88;12.27;;;5.80;99.90;;;;;;5004292;28;20247;-81
2022/03/21 08:03:56;;;;;;;16.85;12.50;;;6.20;1.00;;;;;;5003837;28;20248;-82
2022/03/21 08:06:22;;;;;;;20.33;12.02;;;6.30;99.90;;;;;;5004015;28;20209;-81
2022/03/21 08:08:50;;;;;;;15.88;10.43;;;6.40;99.90;;;;;;5008349;28;20275;-81
2022/03/21 08:11:17;;;;;;;15.60;11.32;;;6.50;1.00;;;;;;5011748;28;20544;-81
2022/03/21 08:13:44;;;;;;;17.40;12.07;;;6.60;1.00;;;;;;5011721;28;20288;-82
2022/03/21 08:16:11;;;;;;;15.45;10.65;;;6.70;99.90;;;;;;5015834;28;20201;-81
2022/03/21 08:18:40;;;;;;;13.30;10.18;;;6.70;1.00;;;;;;5013814;28;20224;-81
2022/03/21 08:21:07;;;;;;;15.68;11.43;;;6.80;1.00;;;;;;5013785;28;20209;-81
2022/03/21 08:23:34;;;;;;;14.40;11.25;;;6.90;1.00;;;;;;5016494;28;20256;-82
2022/03/21 08:26:01;;;;;;;14.20;10.63;;;7.00;1.00;;;;;;5018966;28;20197;-81
2022/03/21 08:28:27;;;;;;;13.13;10.45;;;6.90;1.00;;;;;;5013123;28;20209;-81
2022/03/21 08:30:54;;;;;;;14.65;9.82;;;7.20;1.00;;;;;;5012422;28;20205;-80
2022/03/21 08:33:21;;;;;;;13.43;10.48;;;7.40;1.00;;;;;;5009352;28;20221;-81
2022/03/21 08:35:49;;;;;;;13.15;10.35;;;7.40;1.00;;;;;;5005722;28;20201;-79
2022/03/21 08:38:16;;;;;;;13.07;9.65;;;7.50;1.00;;;;;;5001340;28;20565;-78
2022/03/21 08:40:43;;;;;;;14.23;9.80;;;7.60;1.00;;;;;;5003695;28;20228;-79
2022/03/21 08:43:09;;;;;;;12.33;8.87;;;7.70;1.00;;;;;;5003780;28;20241;-79
2022/03/21 08:45:37;;;;;;;14.27;8.30;;;7.80;1.00;;;;;;4999647;28;20431;-81
2022/03/21 08:48:04;;;;;;;10.35;8.18;;;8.00;1.00;;;;;;4997940;28;20205;-79
2022/03/21 08:50:31;;;;;;;11.52;9.30;;;7.90;1.00;;;;;;4997921;28;20624;-80
2022/03/21 08:52:59;;;;;;;18.77;9.90;;;8.00;1.00;;;;;;4997454;28;20225;-79
2022/03/21 08:55:26;;;;;;;10.27;8.50;;;8.20;1.00;;;;;;4998737;28;20427;-79
2022/03/21 08:57:53;;;;;;;13.70;8.25;;;8.20;1.00;;;;;;4997569;28;20580;-79
2022/03/21 09:00:20;;;;;;;11.30;8.32;;;8.30;1.00;;;;;;4997606;28;20210;-80
2022/03/21 09:02:48;;;;;;;8.77;7.87;;;8.40;1.00;;;;;;4998250;28;20239;-78
2022/03/21 09:05:16;;;;;;;9.80;8.23;;;8.50;1.00;;;;;;4997690;28;21020;-78
2022/03/21 09:07:42;;;;;;;10.50;8.20;;;8.50;1.00;;;;;;4998524;28;20254;-79
2022/03/21 09:10:13;;;;;;;9.90;8.40;;;8.50;1.00;;;;;;4997941;28;20783;-79
2022/03/21 09:12:40;;;;;;;10.48;7.40;;;8.60;5.00;;;;;;4996814;28;20796;-78
2022/03/21 09:15:07;;;;;;;12.10;8.73;;;8.60;4.00;;;;;;4998943;28;20232;-79
2022/03/21 09:17:34;;;;;;;12.00;9.63;;;8.50;1.00;;;;;;4998564;28;20818;-79
2022/03/21 09:20:00;;;;;;;11.73;8.70;;;8.50;2.00;;;;;;4998005;28;20469;-79
2022/03/21 09:22:27;;;;;;;15.33;10.10;;;8.50;2.60;;;;;;4997883;28;20509;-79
2022/03/21 09:24:54;;;;;;;12.17;8.30;;;8.70;3.70;;;;;;4998161;28;20429;-80
2022/03/21 09:27:22;;;;;;;13.57;8.50;;;8.70;1.90;;;;;;4998232;28;20484;-80
2022/03/21 09:29:49;;;;;;;15.63;8.70;;;8.90;9.30;;;;;;4998148;28;20471;-80
2022/03/21 09:32:17;;;;;;;11.93;7.70;;;8.80;8.50;;;;;;4998152;28;20449;-79
2022/03/21 09:34:44;;;;;;;9.73;8.80;;;8.70;9.60;;;;;;4999072;28;20482;-80
2022/03/21 09:37:11;;;;;;;12.70;9.03;;;8.90;7.70;;;;;;4998294;28;20424;-79
2022/03/21 09:39:38;;;;;;;12.90;10.10;;;8.80;8.60;;;;;;4997969;28;20997;-79
2022/03/21 09:42:05;;;;;;;11.27;8.50;;;8.80;7.80;;;;;;4996353;28;20879;-78
2022/03/21 09:44:35;;;;;;;13.27;8.17;;;8.80;6.50;;;;;;4996585;28;20433;-79
2022/03/21 09:48:08;;;;;;;13.40;8.60;;;8.70;4.90;;;;;;4997884;28;20435;-78
2022/03/21 09:49:52;;;;;;;13.93;10.10;;;8.90;7.30;;;;;;4994979;28;21042;-78
2022/03/21 09:52:21;;;;;;;14.70;9.50;;;8.80;9.00;;;;;;4997344;28;20505;-79
2022/03/21 09:54:48;;;;;;;12.03;9.00;;;9.00;10.70;;;;;;4997906;28;20473;-78
2022/03/21 09:57:14;;;;;;;14.13;10.00;;;9.80;11.30;;;;;;4998390;28;20472;-80
2022/03/21 09:59:42;;;;;;;9.97;8.97;;;9.10;9.00;;;;;;5002355;28;20873;-78
2022/03/21 10:02:10;;;;;;;10.93;9.27;;;9.30;8.20;;;;;;5005400;28;20465;-79
2022/03/21 10:04:38;;;;;;;10.53;9.40;;;9.40;11.50;;;;;;5004325;28;20439;-78
2022/03/21 10:07:05;;;;;;;12.90;9.40;;;9.40;8.40;;;;;;5004749;28;20442;-79
2022/03/21 10:09:31;;;;;;;13.30;8.70;;;9.50;11.50;;;;;;5003900;28;20554;-79
2022/03/21 10:11:59;;;;;;;10.97;8.20;;;9.60;9.20;;;;;;5003603;28;20469;-79
2022/03/21 10:14:28;;;;;;;10.60;9.20;;;9.70;12.40;;;;;;4996413;28;20537;-79
2022/03/21 10:16:58;;;;;;;10.30;7.63;;;9.70;9.90;;;;;;5000020;28;20451;-79
2022/03/21 10:19:26;;;;;;;11.83;8.33;;;9.40;12.90;;;;;;5004384;28;20499;-80
2022/03/21 10:22:05;;;;;;;8.37;7.57;;;9.70;11.90;;;;;;5005295;28;20474;-78
2022/03/21 10:24:37;;;;;;;16.57;8.60;;;9.70;11.00;;;;;;5000405;28;20425;-79
2022/03/21 10:27:04;;;;;;;9.20;7.70;;;9.80;10.80;;;;;;5004110;28;20818;-79
2022/03/21 10:29:31;;;;;;;9.57;8.57;;;9.90;8.70;;;;;;5004055;28;20532;-78
2022/03/21 10:31:59;;;;;;;13.03;8.87;;;9.90;11.00;;;;;;5000462;28;20544;-80
2022/03/21 10:34:30;;;;;;;10.47;8.17;;;10.00;9.80;;;;;;4998122;28;20452;-79
2022/03/21 10:37:01;;;;;;;9.30;8.00;;;10.00;10.70;;;;;;4997980;28;20483;-80
2022/03/21 10:39:29;;;;;;;11.00;9.50;;;10.20;11.10;;;;;;4998725;28;20515;-79
2022/03/21 10:41:57;;;;;;;12.30;9.00;;;10.00;15.90;;;;;;4998353;28;20471;-78
2022/03/21 10:44:25;;;;;;;12.30;9.70;;;10.40;31.90;;;;;;4998573;28;20440;-79
2022/03/21 10:46:53;;;;;;;9.20;8.30;;;10.30;32.20;;;;;;4998856;28;20427;-80
2022/03/21 10:49:29;;;;;;;14.10;9.40;;;10.40;32.60;;;;;;4998074;28;20920;-79
2022/03/21 10:51:56;;;;;;;14.13;8.70;;;10.50;33.20;;;;;;4998815;28;20572;-80
2022/03/21 10:54:37;;;;;;;19.80;10.37;;;10.50;33.70;;;;;;4998765;28;20448;-79
2022/03/21 10:57:05;;;;;;;9.83;7.93;;;10.60;34.10;;;;;;4999791;28;20444;-79
2022/03/21 10:59:32;;;;;;;12.13;8.83;;;10.60;34.90;;;;;;4999507;28;20516;-79
2022/03/21 11:04:29;;;;;;;14.90;9.23;;;10.70;40.30;;;;;;4974919;28;20444;-78
2022/03/21 11:06:55;;;;;;;12.80;8.27;;;10.60;44.20;;;;;;4976714;28;20477;-78
2022/03/21 11:09:22;;;;;;;12.23;8.93;;;10.20;52.00;;;;;;4976418;28;20455;-78
2022/03/21 11:11:48;;;;;;;11.03;8.90;;;10.80;42.80;;;;;;4977877;28;20449;-78
2022/03/21 11:14:15;;;;;;;15.10;8.90;;;10.30;41.00;;;;;;4976384;28;20886;-79
2022/03/21 11:16:42;;;;;;;13.80;10.33;;;10.80;41.90;;;;;;4977509;28;20457;-79
2022/03/21 11:19:09;;;;;;;11.87;9.03;;;10.70;42.40;;;;;;4980716;28;20483;-77
2022/03/21 11:21:38;;;;;;;12.23;8.10;;;10.80;42.80;;;;;;4976853;28;20471;-77
2022/03/21 11:24:05;;;;;;;13.07;8.53;;;10.90;45.60;;;;;;4980642;28;20494;-78
2022/03/21 11:26:41;;;;;;;15.33;8.67;;;11.10;47.60;;;;;;4979753;28;20508;-78
2022/03/21 11:29:20;;;;;;;10.93;8.90;;;11.20;62.10;;;;;;4980233;28;20460;-79
2022/03/21 11:32:06;;;;;;;11.47;8.30;;;11.10;54.20;;;;;;4980832;28;20465;-79
2022/03/21 11:34:47;;;;;;;12.10;7.10;;;11.40;54.40;;;;;;4981802;28;20412;-78
2022/03/21 11:37:31;;;;;;;8.83;7.93;;;11.70;61.40;;;;;;4987548;28;20465;-78
2022/03/21 11:40:27;;;;;;;12.87;8.20;;;11.60;58.90;;;;;;4984214;28;20989;-79
2022/03/21 11:42:55;;;;;;;12.77;8.33;;;11.70;59.50;;;;;;4981267;28;20524;-79
2022/03/21 11:45:24;;;;;;;9.17;8.27;;;11.50;58.30;;;;;;4983671;28;20461;-77
2022/03/21 11:47:51;;;;;;;10.80;8.80;;;11.50;58.10;;;;;;4987827;28;20455;-79
2022/03/21 11:50:28;;;;;;;29.93;16.03;;;11.60;57.50;;;;;;4984931;28;20531;-77
2022/03/21 11:53:08;;;;;;;10.23;8.43;;;11.40;57.60;;;;;;4984369;28;20444;-78
2022/03/21 11:55:40;;;;;;;11.80;8.43;;;11.60;59.10;;;;;;4987825;28;20453;-78
2022/03/21 11:58:45;;;;;;;16.20;12.10;;;11.70;55.10;;;;;;4985720;28;20450;-79
2022/03/21 12:01:24;;;;;;;10.67;8.23;;;12.10;58.80;;;;;;4983515;28;20489;-79
2022/03/21 12:03:51;;;;;;;9.67;7.83;;;12.10;56.70;;;;;;4979788;28;20547;-78
2022/03/21 12:06:23;;;;;;;10.03;8.17;;;11.90;54.30;;;;;;4979700;28;20448;-79
2022/03/21 12:08:58;;;;;;;10.23;7.70;;;12.00;52.30;;;;;;4983107;28;20930;-78
2022/03/21 12:11:50;;;;;;;8.00;7.30;;;;;;;;;;4987493;28;20412;-79
2022/03/21 12:14:29;;;;;;;11.57;8.87;;;12.40;55.10;;;;;;4989695;28;20437;-78
2022/03/21 12:17:37;;;;;;;9.57;8.53;;;12.30;54.90;;;;;;4987051;28;20412;-77
2022/03/21 12:20:10;;;;;;;10.50;8.90;;;12.40;53.10;;;;;;4983215;28;20477;-77
2022/03/21 12:22:39;;;;;;;9.90;7.60;;;12.40;53.30;;;;;;4980183;28;20500;-79
2022/03/21 12:25:10;;;;;;;9.40;7.30;;;12.20;52.20;;;;;;4978317;28;20445;-79
2022/03/21 12:27:40;;;;;;;9.90;7.90;;;12.40;51.50;;;;;;4980135;28;20482;-79
2022/03/21 12:30:38;;;;;;;8.10;7.40;;;12.40;51.20;;;;;;4981024;28;20424;-78
2022/03/21 12:33:28;;;;;;;11.00;8.20;;;12.60;52.80;;;;;;4982657;28;20473;-77
2022/03/21 12:35:58;;;;;;;17.13;10.30;;;12.70;50.60;;;;;;4980971;28;21002;-79
2022/03/21 12:38:28;;;;;;;13.70;8.00;;;12.50;54.00;;;;;;4980659;28;20809;-78
2022/03/21 12:41:00;;;;;;;11.27;9.33;;;12.20;49.70;;;;;;4979674;28;20849;-77
2022/03/21 12:43:28;;;;;;;9.70;8.70;;;12.70;50.80;;;;;;4981321;28;20455;-80
2022/03/21 12:45:58;;;;;;;10.37;8.10;;;12.90;49.80;;;;;;4979491;28;20446;-78
2022/03/21 12:48:30;;;;;;;11.23;8.17;;;12.80;50.20;;;;;;4980188;28;20928;-80
2022/03/21 12:50:57;;;;;;;9.40;7.97;;;12.70;49.30;;;;;;4979520;28;20869;-78
2022/03/21 12:53:25;;;;;;;10.03;7.97;;;12.50;48.50;;;;;;4978699;28;20448;-78
2022/03/21 12:56:02;;;;;;;9.97;8.43;;;12.60;48.60;;;;;;4980860;28;20453;-78
2022/03/21 12:58:29;;;;;;;12.23;8.93;;;12.70;48.10;;;;;;4982314;28;20792;-79
2022/03/21 13:00:56;;;;;;;11.13;8.50;;;12.70;50.00;;;;;;4984367;28;20516;-80
2022/03/21 13:03:23;;;;;;;10.03;7.33;;;12.70;47.30;;;;;;4982646;28;20572;-78
2022/03/21 13:11:23;;;;;;;15.40;9.90;;;12.50;46.00;;;;;;4980916;28;20405;-79
2022/03/21 13:13:54;;;;;;;14.47;9.80;;;12.90;46.80;;;;;;4983326;28;20467;-76
2022/03/21 13:16:22;;;;;;;15.27;7.90;;;12.80;45.90;;;;;;4978409;28;20537;-79
2022/03/21 13:18:50;;;;;;;15.30;9.10;;;12.80;45.80;;;;;;4978593;28;20949;-78
2022/03/21 13:21:18;;;;;;;10.87;9.60;;;13.00;46.10;;;;;;4977778;28;20572;-77
2022/03/21 13:23:45;;;;;;;12.20;9.17;;;12.90;46.50;;;;;;4980594;28;20451;-77
2022/03/21 13:26:14;;;;;;;9.40;8.40;;;13.00;49.80;;;;;;4977041;28;20485;-79